Hovedside
METAR-TAF:

METAR-TAF

Lufthavner :

Mariehamn lufthavn

Mariehamn, Finland

breddegrad: 60-07N, lengdegrad: 019-54E, høyde over havet: 6 m

Gjeldene værobservasjon

Denne rapporten ble laget for 37 minutter siden, klokken 15:20 UTC
Vind 7 kt fra Nord, skiftende mellom Nordvest og Nordøst
Temperatur 19°C
Luftfuktighet 52%
Trykk 1019 hPa
Sikt 10 km eller mer
ingen skyer under 1500 m og ingen bygeskyer

METAR: EFMA 241520Z AUTO 35007KT 320V040 CAVOK 19/09 Q1019

Tid: 18:57 (15:57 UTC)

Varsel

Denne rapporten ble laget for 1 time og 26 minutter siden, klokken 14:31 UTC
Varsel gyldig fra 24. klokken 15 UTC til 24. klokken 24 UTC
Vind 9 kt fra Nord-nordvest
Sikt 10 km eller mer
ingen skyer under 1500 m og ingen bygeskyer

TAF: EFMA 241431Z 2415/2424 34009KT CAVOK

Værobservasjoner og værvarsel for over 4000 flyplasser (METAR- og TAF-rapporter).

Tilgjengelige stasjoner er representert av de røde og gule prikkene på kartet.

Hold musepekeren over prikken for å se navnet på stasjonen.

Klikk så for å se værobservasjoner og -varsler.

For å forandre kartet kan du klikke på den grønne knappen med svart kryss for å zoome inn, på den grønne knappen med strek for å zoome ut, eller på de grønne pilene for å se tilstøtende kart.


METAR-TAF: